Time,TemperatureF,DewpointF,PressureIn,WindDirection,WindDirectionDegrees,WindSpeedMPH,WindSpeedGustMPH,Humidity,HourlyPrecipIn,Conditions,Clouds,dailyrainin,SoftwareType,DateUTC
2013-10-30 00:03:00,37.0,34.3,30.18,WNW,292,0.0,-999.0,90,-99.99,,,0.00,Acu-Link.com,2013-10-30 04:03:00,
2013-10-30 00:19:00,36.3,33.9,30.17,WNW,292,1.1,-999.0,91,-99.99,,,0.00,Acu-Link.com,2013-10-30 04:19:00,
2013-10-30 00:34:00,35.8,33.7,30.16,WNW,292,0.0,-999.0,92,-99.99,,,0.00,Acu-Link.com,2013-10-30 04:34:00,
2013-10-30 00:49:00,35.6,34.0,30.16,WNW,292,0.0,-999.0,94,-99.99,,,0.00,Acu-Link.com,2013-10-30 04:49:00,
2013-10-30 01:04:00,35.6,34.0,30.15,SE,135,0.0,-999.0,94,-99.99,,,0.00,Acu-Link.com,2013-10-30 05:04:00,
2013-10-30 01:19:00,35.4,33.8,30.15,West,270,0.0,-999.0,94,-99.99,,,0.00,Acu-Link.com,2013-10-30 05:19:00,
2013-10-30 01:34:00,35.4,33.8,30.15,East,90,0.0,-999.0,94,-99.99,,,0.00,Acu-Link.com,2013-10-30 05:34:00,
2013-10-30 01:49:00,34.7,33.4,30.14,WNW,292,0.0,-999.0,95,-99.99,,,0.00,Acu-Link.com,2013-10-30 05:49:00,
2013-10-30 02:05:00,34.7,33.4,30.13,NNE,22,0.0,-999.0,95,-99.99,,,0.00,Acu-Link.com,2013-10-30 06:05:00,
2013-10-30 02:20:00,34.9,33.6,30.12,NNE,22,0.0,-999.0,95,-99.99,,,0.00,Acu-Link.com,2013-10-30 06:20:00,
2013-10-30 02:35:00,34.3,33.0,30.12,NNW,337,0.0,-999.0,95,-99.99,,,0.00,Acu-Link.com,2013-10-30 06:35:00,
2013-10-30 02:50:00,34.2,33.2,30.13,West,270,0.0,-999.0,96,-99.99,,,0.00,Acu-Link.com,2013-10-30 06:50:00,
2013-10-30 03:05:00,34.3,33.3,30.12,WNW,292,0.0,-999.0,96,-99.99,,,0.00,Acu-Link.com,2013-10-30 07:05:00,
2013-10-30 03:21:00,34.2,33.2,30.12,SSW,202,0.0,-999.0,96,-99.99,,,0.00,Acu-Link.com,2013-10-30 07:21:00,
2013-10-30 03:36:00,33.8,32.8,30.12,West,270,0.0,-999.0,96,-99.99,,,0.00,Acu-Link.com,2013-10-30 07:36:00,
2013-10-30 03:51:00,33.6,32.6,30.11,ESE,112,0.0,-999.0,96,-99.99,,,0.00,Acu-Link.com,2013-10-30 07:51:00,
2013-10-30 04:06:00,33.6,32.8,30.11,NNW,337,0.0,-999.0,97,-99.99,,,0.00,Acu-Link.com,2013-10-30 08:06:00,
2013-10-30 04:21:00,33.3,32.5,30.11,NW,315,0.0,-999.0,97,-99.99,,,0.00,Acu-Link.com,2013-10-30 08:21:00,
2013-10-30 04:36:00,33.6,32.8,30.12,ESE,112,0.0,-999.0,97,-99.99,,,0.00,Acu-Link.com,2013-10-30 08:36:00,
2013-10-30 04:52:00,33.1,32.3,30.12,West,270,0.0,-999.0,97,-99.99,,,0.00,Acu-Link.com,2013-10-30 08:52:00,
2013-10-30 05:07:00,32.7,31.9,30.14,WNW,292,0.0,-999.0,97,-99.99,,,0.00,Acu-Link.com,2013-10-30 09:07:00,
2013-10-30 05:22:00,32.7,31.9,30.14,West,270,0.0,-999.0,97,-99.99,,,0.00,Acu-Link.com,2013-10-30 09:22:00,
2013-10-30 05:37:00,32.4,31.6,30.13,SSE,157,0.0,-999.0,97,-99.99,,,0.00,Acu-Link.com,2013-10-30 09:37:00,
2013-10-30 05:52:00,32.5,31.7,30.14,NNW,337,0.0,-999.0,97,-99.99,,,0.00,Acu-Link.com,2013-10-30 09:52:00,
2013-10-30 06:08:00,33.1,32.6,30.13,NNE,22,0.0,-999.0,98,-99.99,,,0.00,Acu-Link.com,2013-10-30 10:08:00,
2013-10-30 06:23:00,33.3,32.8,30.14,South,180,2.2,-999.0,98,-99.99,,,0.00,Acu-Link.com,2013-10-30 10:23:00,
2013-10-30 06:38:00,32.9,32.4,30.14,West,270,0.0,-999.0,98,-99.99,,,0.00,Acu-Link.com,2013-10-30 10:38:00,
2013-10-30 06:53:00,32.4,31.9,30.14,NNW,337,0.0,-999.0,98,-99.99,,,0.00,Acu-Link.com,2013-10-30 10:53:00,
2013-10-30 07:08:00,32.2,31.7,30.13,NW,315,0.0,-999.0,98,-99.99,,,0.00,Acu-Link.com,2013-10-30 11:08:00,
2013-10-30 07:23:00,31.6,31.1,30.12,WNW,292,0.0,-999.0,98,-99.99,,,0.00,Acu-Link.com,2013-10-30 11:23:00,
2013-10-30 07:38:00,31.3,30.8,30.13,West,270,0.0,-999.0,98,-99.99,,,0.00,Acu-Link.com,2013-10-30 11:38:00,
2013-10-30 07:53:00,31.3,30.8,30.14,SSE,157,0.0,-999.0,98,-99.99,,,0.00,Acu-Link.com,2013-10-30 11:53:00,
2013-10-30 08:08:00,30.7,30.2,30.14,NNW,337,0.0,-999.0,98,-99.99,,,0.00,Acu-Link.com,2013-10-30 12:08:00,
2013-10-30 08:24:00,31.1,30.6,30.14,WNW,292,0.0,-999.0,98,-99.99,,,0.00,Acu-Link.com,2013-10-30 12:24:00,
2013-10-30 08:39:00,31.8,31.3,30.15,SW,225,0.0,-999.0,98,-99.99,,,0.00,Acu-Link.com,2013-10-30 12:39:00,
2013-10-30 08:54:00,32.4,31.9,30.16,West,270,0.0,-999.0,98,-99.99,,,0.00,Acu-Link.com,2013-10-30 12:54:00,
2013-10-30 09:09:00,33.6,33.1,30.16,West,270,0.0,-999.0,98,-99.99,,,0.00,Acu-Link.com,2013-10-30 13:09:00,
2013-10-30 09:24:00,35.6,35.1,30.15,South,180,1.7,-999.0,98,-99.99,,,0.00,Acu-Link.com,2013-10-30 13:24:00,
2013-10-30 09:39:00,36.0,35.2,30.15,WNW,292,1.7,-999.0,97,-99.99,,,0.00,Acu-Link.com,2013-10-30 13:39:00,
2013-10-30 09:55:00,37.6,36.0,30.15,South,180,3.2,-999.0,94,-99.99,,,0.00,Acu-Link.com,2013-10-30 13:55:00,
2013-10-30 10:10:00,38.5,36.4,30.15,SSE,157,1.7,-999.0,92,-99.99,,,0.00,Acu-Link.com,2013-10-30 14:10:00,
2013-10-30 10:25:00,40.1,36.8,30.15,SSW,202,3.7,-999.0,88,-99.99,,,0.00,Acu-Link.com,2013-10-30 14:25:00,
2013-10-30 10:40:00,41.7,37.2,30.15,South,180,1.7,-999.0,84,-99.99,,,0.00,Acu-Link.com,2013-10-30 14:40:00,
2013-10-30 10:55:00,43.9,37.5,30.15,ESE,112,2.7,-999.0,78,-99.99,,,0.00,Acu-Link.com,2013-10-30 14:55:00,
2013-10-30 11:10:00,45.5,38.0,30.15,SE,135,1.7,-999.0,75,-99.99,,,0.00,Acu-Link.com,2013-10-30 15:10:00,
2013-10-30 11:25:00,47.1,39.2,30.14,ENE,67,2.7,-999.0,74,-99.99,,,0.00,Acu-Link.com,2013-10-30 15:25:00,
2013-10-30 11:40:00,48.0,39.4,30.14,SE,135,3.7,-999.0,72,-99.99,,,0.00,Acu-Link.com,2013-10-30 15:40:00,
2013-10-30 11:55:00,49.8,40.4,30.13,ESE,112,3.2,-999.0,70,-99.99,,,0.00,Acu-Link.com,2013-10-30 15:55:00,
2013-10-30 12:10:00,52.5,41.5,30.13,SSW,202,0.0,-999.0,66,-99.99,,,0.00,Acu-Link.com,2013-10-30 16:10:00,
2013-10-30 12:26:00,54.1,42.2,30.11,SSW,202,4.2,-999.0,64,-99.99,,,0.00,Acu-Link.com,2013-10-30 16:26:00,
2013-10-30 12:41:00,55.4,42.6,30.11,SSW,202,2.2,-999.0,62,-99.99,,,0.00,Acu-Link.com,2013-10-30 16:41:00,
2013-10-30 12:56:00,56.3,43.0,30.10,SW,225,2.2,-999.0,61,-99.99,,,0.00,Acu-Link.com,2013-10-30 16:56:00,
2013-10-30 13:11:00,57.9,43.2,30.08,SSW,202,2.7,-999.0,58,-99.99,,,0.00,Acu-Link.com,2013-10-30 17:11:00,
2013-10-30 13:26:00,58.5,43.3,30.07,NE,45,1.7,-999.0,57,-99.99,,,0.00,Acu-Link.com,2013-10-30 17:26:00,
2013-10-30 13:41:00,59.9,43.2,30.06,NNW,337,2.7,-999.0,54,-99.99,,,0.00,Acu-Link.com,2013-10-30 17:41:00,
2013-10-30 13:57:00,61.2,43.9,30.04,South,180,1.7,-999.0,53,-99.99,,,0.00,Acu-Link.com,2013-10-30 17:57:00,
2013-10-30 14:12:00,61.2,42.4,30.03,West,270,2.7,-999.0,50,-99.99,,,0.00,Acu-Link.com,2013-10-30 18:12:00,
2013-10-30 14:27:00,62.6,42.1,30.02,SSW,202,2.7,-999.0,47,-99.99,,,0.00,Acu-Link.com,2013-10-30 18:27:00,
2013-10-30 14:42:00,64.0,41.1,30.01,SSW,202,2.2,-999.0,43,-99.99,,,0.00,Acu-Link.com,2013-10-30 18:42:00,
2013-10-30 14:57:00,64.6,40.4,30.00,SSW,202,3.7,-999.0,41,-99.99,,,0.00,Acu-Link.com,2013-10-30 18:57:00,
2013-10-30 15:12:00,64.4,40.2,30.00,WSW,247,1.7,-999.0,41,-99.99,,,0.00,Acu-Link.com,2013-10-30 19:12:00,
2013-10-30 15:27:00,64.8,39.3,29.99,SSE,157,1.1,-999.0,39,-99.99,,,0.00,Acu-Link.com,2013-10-30 19:27:00,
2013-10-30 15:42:00,64.0,39.8,29.98,SSE,157,1.7,-999.0,41,-99.99,,,0.00,Acu-Link.com,2013-10-30 19:42:00,
2013-10-30 15:57:00,65.1,40.2,29.98,ENE,67,0.0,-999.0,40,-99.99,,,0.00,Acu-Link.com,2013-10-30 19:57:00,
2013-10-30 16:13:00,64.4,39.6,29.98,SE,135,2.2,-999.0,40,-99.99,,,0.00,Acu-Link.com,2013-10-30 20:13:00,
2013-10-30 16:28:00,63.9,40.4,29.97,SSE,157,3.7,-999.0,42,-99.99,,,0.00,Acu-Link.com,2013-10-30 20:28:00,
2013-10-30 16:43:00,63.5,40.6,29.97,SSW,202,2.7,-999.0,43,-99.99,,,0.00,Acu-Link.com,2013-10-30 20:43:00,
2013-10-30 16:58:00,63.1,40.8,29.96,West,270,1.7,-999.0,44,-99.99,,,0.00,Acu-Link.com,2013-10-30 20:58:00,
2013-10-30 17:13:00,62.8,41.1,29.96,NE,45,0.0,-999.0,45,-99.99,,,0.00,Acu-Link.com,2013-10-30 21:13:00,
2013-10-30 17:28:00,62.2,41.2,29.97,West,270,1.7,-999.0,46,-99.99,,,0.00,Acu-Link.com,2013-10-30 21:28:00,
2013-10-30 17:43:00,61.3,42.5,29.97,ESE,112,0.0,-999.0,50,-99.99,,,0.00,Acu-Link.com,2013-10-30 21:43:00,
2013-10-30 17:58:00,60.1,42.4,29.98,NNW,337,1.1,-999.0,52,-99.99,,,0.00,Acu-Link.com,2013-10-30 21:58:00,
2013-10-30 18:13:00,58.1,41.1,29.98,NE,45,0.0,-999.0,53,-99.99,,,0.00,Acu-Link.com,2013-10-30 22:13:00,
2013-10-30 18:29:00,55.9,42.2,29.99,NE,45,0.0,-999.0,60,-99.99,,,0.00,Acu-Link.com,2013-10-30 22:29:00,
2013-10-30 18:44:00,54.7,41.9,30.00,West,270,1.7,-999.0,62,-99.99,,,0.00,Acu-Link.com,2013-10-30 22:44:00,
2013-10-30 18:59:00,53.4,42.3,30.00,NNE,22,0.0,-999.0,66,-99.99,,,0.00,Acu-Link.com,2013-10-30 22:59:00,
2013-10-30 19:14:00,52.3,42.1,30.01,WNW,292,0.0,-999.0,68,-99.99,,,0.00,Acu-Link.com,2013-10-30 23:14:00,
2013-10-30 19:29:00,50.9,41.5,30.01,NW,315,2.2,-999.0,70,-99.99,,,0.00,Acu-Link.com,2013-10-30 23:29:00,
2013-10-30 19:44:00,49.5,41.6,30.01,SW,225,0.0,-999.0,74,-99.99,,,0.00,Acu-Link.com,2013-10-30 23:44:00,
2013-10-30 20:00:00,48.9,41.7,30.01,West,270,2.2,-999.0,76,-99.99,,,0.00,Acu-Link.com,2013-10-31 00:00:00,
2013-10-30 20:15:00,47.8,40.9,30.02,NNW,337,0.0,-999.0,77,-99.99,,,0.00,Acu-Link.com,2013-10-31 00:15:00,
2013-10-30 20:30:00,47.1,40.9,30.01,East,90,0.0,-999.0,79,-99.99,,,0.00,Acu-Link.com,2013-10-31 00:30:00,
2013-10-30 20:45:00,46.9,41.4,30.02,West,270,0.0,-999.0,81,-99.99,,,0.00,Acu-Link.com,2013-10-31 00:45:00,
2013-10-30 21:00:00,46.2,40.7,30.02,SW,225,0.0,-999.0,81,-99.99,,,0.00,Acu-Link.com,2013-10-31 01:00:00,
2013-10-30 21:15:00,46.2,41.0,30.03,ESE,112,0.0,-999.0,82,-99.99,,,0.00,Acu-Link.com,2013-10-31 01:15:00,
2013-10-30 21:30:00,46.2,41.3,30.03,West,270,0.0,-999.0,83,-99.99,,,0.00,Acu-Link.com,2013-10-31 01:30:00,
2013-10-30 21:46:00,46.9,41.7,30.03,WNW,292,0.0,-999.0,82,-99.99,,,0.00,Acu-Link.com,2013-10-31 01:46:00,
2013-10-30 22:01:00,47.5,42.0,30.03,SE,135,0.0,-999.0,81,-99.99,,,0.00,Acu-Link.com,2013-10-31 02:01:00,
2013-10-30 22:16:00,47.5,42.3,30.04,SSW,202,0.0,-999.0,82,-99.99,,,0.00,Acu-Link.com,2013-10-31 02:16:00,
2013-10-30 22:31:00,47.5,42.3,30.03,SSW,202,0.0,-999.0,82,-99.99,,,0.00,Acu-Link.com,2013-10-31 02:31:00,
2013-10-30 22:46:00,47.5,42.6,30.04,West,270,0.0,-999.0,83,-99.99,,,0.00,Acu-Link.com,2013-10-31 02:46:00,
2013-10-30 23:01:00,47.8,42.9,30.04,ESE,112,0.0,-999.0,83,-99.99,,,0.00,Acu-Link.com,2013-10-31 03:01:00,
2013-10-30 23:16:00,47.8,42.9,30.03,NNW,337,1.7,-999.0,83,-99.99,,,0.00,Acu-Link.com,2013-10-31 03:16:00,
2013-10-30 23:31:00,48.6,43.4,30.03,SW,225,1.7,-999.0,82,-99.99,,,0.00,Acu-Link.com,2013-10-31 03:31:00,
2013-10-30 23:46:00,48.2,43.0,30.02,ESE,112,1.7,-999.0,82,-99.99,,,0.00,Acu-Link.com,2013-10-31 03:46:00,